createdAt,value
2019-04-07T00:02:04.545Z,94127.55
2019-04-07T00:04:34.198Z,94127.00
2019-04-07T00:07:04.416Z,94132.94
2019-04-07T00:09:36.488Z,94135.06
2019-04-07T00:12:07.092Z,94124.66
2019-04-07T00:14:36.491Z,94129.31
2019-04-07T00:17:07.344Z,94128.43
2019-04-07T00:19:37.836Z,94125.20
2019-04-07T00:22:10.546Z,94124.66
2019-04-07T00:24:39.564Z,94130.63
2019-04-07T00:27:10.499Z,94132.41
2019-04-07T00:29:39.537Z,94135.89
2019-04-07T00:32:11.166Z,94132.52
2019-04-07T00:34:42.417Z,94129.81
2019-04-07T00:37:13.216Z,94131.22
2019-04-07T00:39:43.544Z,94127.84
2019-04-07T00:42:15.411Z,94130.63
2019-04-07T00:44:48.155Z,94133.91
2019-04-07T00:47:18.606Z,94127.08
2019-04-07T00:49:49.246Z,94131.18
2019-04-07T00:52:20.514Z,94135.83
2019-04-07T00:54:49.589Z,94135.56
2019-04-07T00:57:19.967Z,94135.36
2019-04-07T00:59:48.913Z,94131.93
2019-04-07T01:02:18.453Z,94132.84
2019-04-07T01:04:49.708Z,94127.00
2019-04-07T01:07:39.880Z,94130.91
2019-04-07T01:10:11.358Z,94129.92
2019-04-07T01:12:40.293Z,94138.52
2019-04-07T01:15:31.685Z,94134.25
2019-04-07T01:18:01.130Z,94131.42
2019-04-07T01:20:31.746Z,94123.15
2019-04-07T01:23:02.826Z,94123.42
2019-04-07T01:25:31.874Z,94124.25
2019-04-07T01:28:03.315Z,94120.87
2019-04-07T01:30:34.929Z,94132.82
2019-04-07T01:33:06.432Z,94132.52
2019-04-07T01:35:44.928Z,94128.70
2019-04-07T01:38:07.841Z,94126.03
2019-04-07T01:43:29.790Z,94126.85
2019-04-07T01:46:19.232Z,94122.91
2019-04-07T01:48:55.952Z,94119.72
2019-04-07T01:51:33.320Z,94124.80
2019-04-07T01:54:05.503Z,94123.47
2019-04-07T01:56:48.150Z,94118.03
2019-04-07T01:59:18.843Z,94118.30
2019-04-07T02:02:04.680Z,94118.14
2019-04-07T02:07:33.745Z,94114.80
2019-04-07T02:10:20.850Z,94115.27
2019-04-07T02:13:07.709Z,94113.85
2019-04-07T02:18:37.893Z,94111.23
2019-04-07T02:21:10.665Z,94109.83
2019-04-07T02:23:41.384Z,94112.53
2019-04-07T02:26:43.307Z,94113.53
2019-04-07T02:32:08.130Z,94113.72
2019-04-07T02:34:40.129Z,94109.19
2019-04-07T02:37:29.224Z,94107.38
2019-04-07T02:40:11.802Z,94106.05
2019-04-07T02:42:48.582Z,94109.59
2019-04-07T02:45:37.259Z,94108.68
2019-04-07T02:48:13.923Z,94111.70
2019-04-07T02:50:50.879Z,94115.41
2019-04-07T02:53:21.546Z,94114.55
2019-04-07T02:55:55.074Z,94124.20
2019-04-07T02:58:36.074Z,94119.66
2019-04-07T03:01:06.969Z,94123.47
2019-04-07T03:03:40.607Z,94128.10
2019-04-07T03:06:20.992Z,94131.87
2019-04-07T03:08:53.505Z,94136.45
2019-04-07T03:11:27.659Z,94134.84
2019-04-07T03:14:04.187Z,94128.61
2019-04-07T03:16:35.491Z,94130.42
2019-04-07T03:19:15.197Z,94136.80
2019-04-07T03:22:01.153Z,94132.05
2019-04-07T03:24:34.832Z,94131.59
2019-04-07T03:27:15.573Z,94136.19
2019-04-07T03:29:55.421Z,94137.11
2019-04-07T03:32:45.671Z,94136.10
2019-04-07T03:35:21.209Z,94129.77
2019-04-07T03:38:07.609Z,94131.86
2019-04-07T03:40:56.959Z,94132.88
2019-04-07T03:43:33.471Z,94128.09
2019-04-07T03:46:04.112Z,94132.16
2019-04-07T03:48:38.026Z,94132.23
2019-04-07T03:51:12.391Z,94136.72
2019-04-07T03:53:49.107Z,94134.30
2019-04-07T03:56:20.148Z,94137.44
2019-04-07T03:58:56.681Z,94135.06
2019-04-07T04:01:33.321Z,94131.78
2019-04-07T04:04:19.182Z,94131.78
2019-04-07T04:07:16.445Z,94128.16
2019-04-07T04:09:39.103Z,94133.41
2019-04-07T04:12:18.745Z,94129.31
2019-04-07T04:14:52.717Z,94139.83
2019-04-07T04:17:21.728Z,94146.94
2019-04-07T04:19:51.835Z,94145.91
2019-04-07T04:22:21.100Z,94142.43
2019-04-07T04:24:51.677Z,94141.05
2019-04-07T04:27:21.523Z,94146.38
2019-04-07T04:29:51.928Z,94144.12
2019-04-07T04:32:21.987Z,94153.38
2019-04-07T04:34:51.760Z,94147.49
2019-04-07T04:37:34.740Z,94147.05
2019-04-07T04:39:51.357Z,94153.48
2019-04-07T04:42:20.521Z,94156.17
2019-04-07T04:44:49.464Z,94168.33
2019-04-07T04:47:19.065Z,94165.28
2019-04-07T04:49:48.388Z,94171.77
2019-04-07T04:52:18.060Z,94178.09
2019-04-07T04:54:47.518Z,94180.79
2019-04-07T04:57:16.478Z,94183.92
2019-04-07T04:59:45.475Z,94180.57
2019-04-07T05:02:14.464Z,94180.28
2019-04-07T05:04:43.869Z,94186.05
2019-04-07T05:07:13.958Z,94181.27
2019-04-07T05:09:48.971Z,94191.77
2019-04-07T05:12:13.308Z,94196.66
2019-04-07T05:14:42.857Z,94203.03
2019-04-07T05:17:12.662Z,94198.42
2019-04-07T05:19:43.052Z,94202.34
2019-04-07T05:22:12.542Z,94205.14
2019-04-07T05:24:41.453Z,94216.80
2019-04-07T05:27:11.308Z,94217.09
2019-04-07T05:29:40.271Z,94216.45
2019-04-07T05:32:09.604Z,94216.20
2019-04-07T05:34:40.264Z,94223.17
2019-04-07T05:37:09.891Z,94227.66
2019-04-07T05:39:39.479Z,94228.08
2019-04-07T05:42:09.394Z,94227.17
2019-04-07T05:44:38.577Z,94219.88
2019-04-07T05:47:10.902Z,94235.47
2019-04-07T05:49:38.911Z,94235.09
2019-04-07T05:52:09.586Z,94237.02
2019-04-07T05:54:38.485Z,94241.31
2019-04-07T05:57:08.590Z,94246.05
2019-04-07T05:59:37.660Z,94247.77
2019-04-07T06:02:08.016Z,94246.39
2019-04-07T06:04:37.033Z,94243.25
2019-04-07T06:07:05.939Z,94242.52
2019-04-07T06:09:35.089Z,94248.98
2019-04-07T06:12:08.495Z,94241.95
2019-04-07T06:14:34.837Z,94248.53
2019-04-07T06:17:04.822Z,94246.50
2019-04-07T06:19:39.499Z,94248.90
2019-04-07T06:22:07.609Z,94254.13
2019-04-07T06:24:36.651Z,94254.63
2019-04-07T06:27:05.643Z,94259.14
2019-04-07T06:29:34.538Z,94257.11
2019-04-07T06:32:05.221Z,94263.21
2019-04-07T06:34:34.172Z,94270.97
2019-04-07T06:37:03.524Z,94274.07
2019-04-07T06:39:32.373Z,94270.33
2019-04-07T06:42:02.424Z,94264.48
2019-04-07T06:44:31.675Z,94267.75
2019-04-07T06:47:16.010Z,94274.73
2019-04-07T06:49:47.484Z,94276.08
2019-04-07T06:52:18.516Z,94275.48
2019-04-07T06:55:05.497Z,94278.45
2019-04-07T06:57:37.524Z,94284.29
2019-04-07T07:00:15.167Z,94285.66
2019-04-07T07:02:46.339Z,94291.69
2019-04-07T07:05:34.971Z,94285.77
2019-04-07T07:08:08.489Z,94285.30
2019-04-07T07:10:50.468Z,94281.66
2019-04-07T07:13:28.490Z,94280.53
2019-04-07T07:16:10.099Z,94277.20
2019-04-07T07:18:45.875Z,94284.74
2019-04-07T07:21:28.700Z,94284.74
2019-04-07T07:23:59.184Z,94289.45
2019-04-07T07:26:28.434Z,94292.25
2019-04-07T07:28:59.016Z,94297.52
2019-04-07T07:31:28.307Z,94298.83
2019-04-07T07:33:57.224Z,94297.98
2019-04-07T07:36:26.365Z,94290.69
2019-04-07T07:39:00.503Z,94298.19
2019-04-07T07:41:29.061Z,94293.78
2019-04-07T07:44:03.160Z,94297.56
2019-04-07T07:46:28.928Z,94294.64
2019-04-07T07:49:01.077Z,94303.80
2019-04-07T07:51:30.342Z,94306.94
2019-04-07T07:54:01.157Z,94302.42
2019-04-07T07:56:30.309Z,94304.80
2019-04-07T07:59:01.803Z,94306.06
2019-04-07T08:01:32.232Z,94309.26
2019-04-07T08:04:01.914Z,94308.75
2019-04-07T08:06:31.704Z,94317.34
2019-04-07T08:09:11.900Z,94319.51
2019-04-07T08:11:33.838Z,94318.42
2019-04-07T08:14:03.529Z,94319.79
2019-04-07T08:16:32.593Z,94324.92
2019-04-07T08:19:01.823Z,94325.87
2019-04-07T08:21:31.581Z,94325.77
2019-04-07T08:24:01.353Z,94325.38
2019-04-07T08:26:31.727Z,94327.20
2019-04-07T08:29:03.242Z,94332.08
2019-04-07T08:31:31.562Z,94336.68
2019-04-07T08:34:02.357Z,94327.89
2019-04-07T08:36:31.439Z,94331.16
2019-04-07T08:39:02.440Z,94330.27
2019-04-07T08:41:31.371Z,94331.67
2019-04-07T08:44:00.362Z,94329.95
2019-04-07T08:46:32.195Z,94333.20
2019-04-07T08:49:01.682Z,94339.14
2019-04-07T08:51:32.489Z,94341.66
2019-04-07T08:54:04.162Z,94335.75
2019-04-07T08:56:32.944Z,94346.39
2019-04-07T08:59:02.825Z,94351.37
2019-04-07T09:01:32.473Z,94339.64
2019-04-07T09:04:01.578Z,94351.47
2019-04-07T09:06:30.527Z,94348.53
2019-04-07T09:08:59.408Z,94351.72
2019-04-07T09:11:29.281Z,94353.13
2019-04-07T09:13:58.853Z,94346.81
2019-04-07T09:16:35.904Z,94353.15
2019-04-07T09:19:09.501Z,94346.80
2019-04-07T09:21:52.805Z,94359.92
2019-04-07T09:24:38.580Z,94352.77
2019-04-07T09:27:19.434Z,94352.20
2019-04-07T09:29:55.811Z,94351.49
2019-04-07T09:32:26.505Z,94351.55
2019-04-07T09:35:15.570Z,94349.32
2019-04-07T09:37:55.901Z,94350.47
2019-04-07T09:40:35.618Z,94354.81
2019-04-07T09:43:12.671Z,94350.78
2019-04-07T09:45:51.999Z,94349.86
2019-04-07T09:48:28.871Z,94343.22
2019-04-07T09:51:16.477Z,94342.40
2019-04-07T09:53:50.367Z,94349.92
2019-04-07T09:56:22.785Z,94350.41
2019-04-07T09:58:53.572Z,94353.11
2019-04-07T10:01:36.426Z,94346.02
2019-04-07T10:04:15.979Z,94349.34
2019-04-07T10:06:52.453Z,94347.78
2019-04-07T10:09:35.688Z,94347.09
2019-04-07T10:12:22.017Z,94342.92
2019-04-07T10:14:58.699Z,94341.86
2019-04-07T10:17:41.754Z,94337.66
2019-04-07T10:20:17.852Z,94330.71
2019-04-07T10:22:49.131Z,94332.86
2019-04-07T10:25:25.176Z,94334.44
2019-04-07T10:28:12.607Z,94338.45
2019-04-07T10:30:43.492Z,94335.95
2019-04-07T10:33:20.483Z,94337.38
2019-04-07T10:35:51.193Z,94327.92
2019-04-07T10:38:34.143Z,94331.56
2019-04-07T10:41:08.106Z,94331.95
2019-04-07T10:43:47.892Z,94335.25
2019-04-07T10:46:37.466Z,94333.83
2019-04-07T10:49:11.823Z,94340.66
2019-04-07T10:51:54.502Z,94336.45
2019-04-07T10:54:31.407Z,94336.96
2019-04-07T10:57:05.059Z,94339.14
2019-04-07T10:59:47.696Z,94336.59
2019-04-07T11:02:30.104Z,94334.56
2019-04-07T11:05:09.669Z,94338.14
2019-04-07T11:07:43.845Z,94332.98
2019-04-07T11:10:36.127Z,94337.03
2019-04-07T11:13:12.709Z,94337.02
2019-04-07T11:15:49.830Z,94336.59
2019-04-07T11:18:32.616Z,94329.27
2019-04-07T11:21:09.491Z,94331.06
2019-04-07T11:23:40.391Z,94328.15
2019-04-07T11:26:14.503Z,94327.89
2019-04-07T11:28:57.014Z,94321.45
2019-04-07T11:31:27.762Z,94328.73
2019-04-07T11:34:01.164Z,94326.09
2019-04-07T11:36:44.275Z,94323.44
2019-04-07T11:39:29.013Z,94321.40
2019-04-07T11:42:11.839Z,94331.95
2019-04-07T11:44:58.604Z,94328.08
2019-04-07T11:47:29.821Z,94320.15
2019-04-07T11:50:12.508Z,94331.59
2019-04-07T11:52:49.378Z,94324.44
2019-04-07T11:55:19.968Z,94325.83
2019-04-07T11:58:02.986Z,94324.32
2019-04-07T12:00:31.536Z,94326.44
2019-04-07T12:03:02.618Z,94321.36
2019-04-07T12:05:36.651Z,94315.71
2019-04-07T12:08:10.432Z,94309.56
2019-04-07T12:11:02.239Z,94320.11
2019-04-07T12:13:43.891Z,94322.60
2019-04-07T12:16:18.468Z,94320.76
2019-04-07T12:19:04.502Z,94318.73
2019-04-07T12:21:36.946Z,94318.30
2019-04-07T12:24:26.482Z,94319.77
2019-04-07T12:27:01.033Z,94317.02
2019-04-07T12:29:34.278Z,94318.64
2019-04-07T12:32:05.131Z,94321.65
2019-04-07T12:34:51.028Z,94320.73
2019-04-07T12:37:42.423Z,94317.59
2019-04-07T12:40:29.029Z,94322.27
2019-04-07T12:42:59.503Z,94324.25
2019-04-07T12:45:45.061Z,94322.50
2019-04-07T12:48:30.011Z,94324.97
2019-04-07T12:51:12.330Z,94321.09
2019-04-07T12:53:45.496Z,94325.59
2019-04-07T12:56:18.057Z,94324.36
2019-04-07T12:58:48.636Z,94322.16
2019-04-07T13:01:35.449Z,94330.16
2019-04-07T13:04:23.343Z,94322.08
2019-04-07T13:06:54.505Z,94324.61
2019-04-07T13:09:32.333Z,94326.34
2019-04-07T13:12:23.621Z,94321.66
2019-04-07T13:15:11.251Z,94320.91
2019-04-07T13:17:50.569Z,94313.84
2019-04-07T13:20:27.295Z,94318.03
2019-04-07T13:23:04.763Z,94319.11
2019-04-07T13:25:38.589Z,94316.45
2019-04-07T13:28:10.959Z,94313.94
2019-04-07T13:30:47.532Z,94317.70
2019-04-07T13:33:29.006Z,94318.41
2019-04-07T13:36:15.932Z,94314.93
2019-04-07T13:38:52.298Z,94317.58
2019-04-07T13:41:23.501Z,94325.30
2019-04-07T13:44:04.779Z,94326.19
2019-04-07T13:46:41.170Z,94324.86
2019-04-07T13:49:17.908Z,94327.53
2019-04-07T13:51:49.286Z,94323.63
2019-04-07T13:54:21.164Z,94326.68
2019-04-07T13:57:07.705Z,94330.72
2019-04-07T13:59:44.115Z,94332.00
2019-04-07T14:02:32.302Z,94336.98
2019-04-07T14:05:15.873Z,94331.05
2019-04-07T14:08:05.927Z,94330.02
2019-04-07T14:10:39.421Z,94329.07
2019-04-07T14:13:29.960Z,94340.23
2019-04-07T14:16:06.181Z,94344.82
2019-04-07T14:18:39.929Z,94344.87
2019-04-07T14:21:13.743Z,94347.44
2019-04-07T14:23:44.734Z,94347.06
2019-04-07T14:26:22.243Z,94348.56
2019-04-07T14:29:11.000Z,94344.03
2019-04-07T14:31:42.431Z,94353.60
2019-04-07T14:34:26.129Z,94346.36
2019-04-07T14:37:15.325Z,94351.55
2019-04-07T14:39:46.585Z,94352.25
2019-04-07T14:42:22.951Z,94355.47
2019-04-07T14:44:56.629Z,94351.55
2019-04-07T14:47:30.510Z,94359.30
2019-04-07T14:50:17.893Z,94357.77
2019-04-07T14:52:54.784Z,94356.88
2019-04-07T14:55:41.143Z,94359.11
2019-04-07T14:58:21.665Z,94360.81
2019-04-07T15:01:03.275Z,94358.52
2019-04-07T15:03:29.139Z,94360.05
2019-04-07T15:05:59.490Z,94359.92
2019-04-07T15:08:47.454Z,94367.78
2019-04-07T15:11:24.892Z,94364.88
2019-04-07T15:13:59.114Z,94375.20
2019-04-07T15:16:27.379Z,94372.11
2019-04-07T15:18:56.652Z,94372.66
2019-04-07T15:21:25.685Z,94375.50
2019-04-07T15:23:54.577Z,94379.45
2019-04-07T15:26:23.629Z,94383.61
2019-04-07T15:28:52.660Z,94383.74
2019-04-07T15:31:21.748Z,94386.34
2019-04-07T15:33:50.903Z,94388.38
2019-04-07T15:36:19.949Z,94397.67
2019-04-07T15:38:49.652Z,94394.02
2019-04-07T15:41:19.543Z,94401.27
2019-04-07T15:43:48.872Z,94404.97
2019-04-07T15:46:19.621Z,94404.64
2019-04-07T15:48:48.608Z,94408.97
2019-04-07T15:51:17.662Z,94410.36
2019-04-07T15:53:51.488Z,94408.41
2019-04-07T15:56:18.828Z,94408.91
2019-04-07T15:58:48.400Z,94415.81
2019-04-07T16:01:17.521Z,94420.84
2019-04-07T16:03:50.348Z,94417.64
2019-04-07T16:06:17.488Z,94424.17
2019-04-07T16:08:46.871Z,94426.23
2019-04-07T16:11:16.844Z,94428.41
2019-04-07T16:13:47.535Z,94433.57
2019-04-07T16:16:16.748Z,94440.80
2019-04-07T16:18:47.074Z,94447.28
2019-04-07T16:21:16.300Z,94447.80
2019-04-07T16:23:50.225Z,94455.66
2019-04-07T16:26:18.560Z,94456.59
2019-04-07T16:28:50.195Z,94452.91
2019-04-07T16:31:21.803Z,94463.30
2019-04-07T16:33:49.539Z,94466.66
2019-04-07T16:36:19.864Z,94464.80
2019-04-07T16:38:48.758Z,94472.78
2019-04-07T16:41:17.830Z,94478.86
2019-04-07T16:43:47.291Z,94470.92
2019-04-07T16:46:20.329Z,94481.27
2019-04-07T16:48:47.083Z,94490.16
2019-04-07T16:51:17.905Z,94495.89
2019-04-07T16:53:46.806Z,94499.41
2019-04-07T16:56:19.284Z,94498.06
2019-04-07T16:58:46.330Z,94502.61
2019-04-07T17:01:16.052Z,94507.48
2019-04-07T17:03:46.571Z,94512.43
2019-04-07T17:06:15.886Z,94508.19
2019-04-07T17:08:45.420Z,94522.29
2019-04-07T17:11:14.387Z,94521.11
2019-04-07T17:13:44.183Z,94517.45
2019-04-07T17:16:14.573Z,94517.90
2019-04-07T17:18:44.119Z,94522.37
2019-04-07T17:21:16.044Z,94525.64
2019-04-07T17:23:45.815Z,94521.45
2019-04-07T17:26:14.972Z,94520.27
2019-04-07T17:28:47.421Z,94531.13
2019-04-07T17:31:16.458Z,94530.90
2019-04-07T17:33:45.783Z,94531.72
2019-04-07T17:36:17.663Z,94535.78
2019-04-07T17:38:50.188Z,94542.48
2019-04-07T17:41:20.094Z,94549.88
2019-04-07T17:43:54.385Z,94549.22
2019-04-07T17:46:40.691Z,94551.27
2019-04-07T17:49:14.728Z,94552.94
2019-04-07T17:51:54.657Z,94555.17
2019-04-07T17:54:43.553Z,94556.87
2019-04-07T17:57:17.155Z,94555.62
2019-04-07T17:59:55.262Z,94557.36
2019-04-07T18:02:30.234Z,94558.17
2019-04-07T18:05:13.028Z,94558.95
2019-04-07T18:07:56.414Z,94558.44
2019-04-07T18:10:36.996Z,94569.71
2019-04-07T18:13:25.070Z,94581.36
2019-04-07T18:16:03.087Z,94579.35
2019-04-07T18:18:54.183Z,94580.27
2019-04-07T18:21:34.605Z,94587.77
2019-04-07T18:24:21.441Z,94592.70
2019-04-07T18:27:11.879Z,94586.77
2019-04-07T18:29:47.952Z,94586.77
2019-04-07T18:32:37.352Z,94598.33
2019-04-07T18:35:26.458Z,94605.60
2019-04-07T18:38:02.594Z,94607.35
2019-04-07T18:40:48.339Z,94609.12
2019-04-07T18:43:20.202Z,94612.39
2019-04-07T18:45:54.848Z,94615.51
2019-04-07T18:48:35.978Z,94619.33
2019-04-07T18:51:16.000Z,94623.39
2019-04-07T18:53:47.453Z,94623.92
2019-04-07T18:56:20.110Z,94637.05
2019-04-07T18:59:07.527Z,94641.23
2019-04-07T19:01:53.036Z,94645.29
2019-04-07T19:04:30.434Z,94649.23
2019-04-07T19:07:02.140Z,94647.72
2019-04-07T19:09:39.247Z,94653.58
2019-04-07T19:12:19.265Z,94650.54
2019-04-07T19:15:09.262Z,94654.69
2019-04-07T19:17:58.924Z,94659.77
2019-04-07T19:20:48.020Z,94666.14
2019-04-07T19:23:19.518Z,94668.81
2019-04-07T19:25:53.821Z,94663.41
2019-04-07T19:28:40.386Z,94671.56
2019-04-07T19:31:16.197Z,94670.20
2019-04-07T19:33:56.636Z,94675.50
2019-04-07T19:36:28.216Z,94672.38
2019-04-07T19:39:18.839Z,94677.83
2019-04-07T19:41:55.175Z,94686.47
2019-04-07T19:44:42.731Z,94680.60
2019-04-07T19:47:22.704Z,94686.09
2019-04-07T19:49:58.940Z,94685.36
2019-04-07T19:52:46.498Z,94678.31
2019-04-07T19:55:26.208Z,94684.28
2019-04-07T19:58:14.189Z,94682.92
2019-04-07T20:00:44.643Z,94686.22
2019-04-07T20:03:32.173Z,94690.56
2019-04-07T20:06:09.301Z,94690.41
2019-04-07T20:08:39.698Z,94688.09
2019-04-07T20:11:28.478Z,94692.31
2019-04-07T20:14:10.358Z,94693.16
2019-04-07T20:16:49.161Z,94695.19
2019-04-07T20:19:19.705Z,94690.88
2019-04-07T20:22:06.951Z,94689.11
2019-04-07T20:24:48.818Z,94691.42
2019-04-07T20:27:24.812Z,94702.53
2019-04-07T20:29:56.310Z,94698.30
2019-04-07T20:32:30.896Z,94696.05
2019-04-07T20:35:20.937Z,94700.33
2019-04-07T20:38:07.968Z,94698.94
2019-04-07T20:40:51.729Z,94702.42
2019-04-07T20:43:35.711Z,94706.33
2019-04-07T20:46:12.034Z,94698.36
2019-04-07T20:48:43.310Z,94702.55
2019-04-07T20:51:17.417Z,94701.55
2019-04-07T20:54:03.901Z,94701.84
2019-04-07T20:56:43.555Z,94700.69
2019-04-07T20:59:27.061Z,94707.31
2019-04-07T21:02:09.850Z,94698.52
2019-04-07T21:04:53.196Z,94708.06
2019-04-07T21:07:40.867Z,94703.05
2019-04-07T21:10:15.624Z,94711.50
2019-04-07T21:12:52.824Z,94704.27
2019-04-07T21:15:27.531Z,94707.48
2019-04-07T21:17:58.247Z,94710.64
2019-04-07T21:20:28.869Z,94708.63
2019-04-07T21:23:14.037Z,94706.94
2019-04-07T21:25:43.398Z,94714.42
2019-04-07T21:28:13.826Z,94710.95
2019-04-07T21:30:44.252Z,94711.05
2019-04-07T21:33:23.727Z,94702.33
2019-04-07T21:36:10.788Z,94705.87
2019-04-07T21:38:58.299Z,94710.05
2019-04-07T21:41:38.340Z,94706.08
2019-04-07T21:44:22.123Z,94710.20
2019-04-07T21:46:54.781Z,94703.69
2019-04-07T21:49:41.867Z,94708.62
2019-04-07T21:52:24.948Z,94705.30
2019-04-07T21:54:58.346Z,94714.67
2019-04-07T21:57:37.784Z,94706.02
2019-04-07T22:00:12.624Z,94710.05
2019-04-07T22:02:44.839Z,94714.66
2019-04-07T22:05:28.561Z,94719.34
2019-04-07T22:08:08.026Z,94717.98
2019-04-07T22:10:34.275Z,94722.17
2019-04-07T22:13:04.999Z,94727.39
2019-04-07T22:15:42.985Z,94720.02
2019-04-07T22:18:07.856Z,94720.13
2019-04-07T22:20:35.184Z,94726.26
2019-04-07T22:23:06.242Z,94722.95
2019-04-07T22:25:40.131Z,94723.19
2019-04-07T22:28:09.741Z,94722.77
2019-04-07T22:30:42.355Z,94730.98
2019-04-07T22:33:10.448Z,94736.98
2019-04-07T22:35:42.462Z,94730.14
2019-04-07T22:38:11.399Z,94727.55
2019-04-07T22:40:41.589Z,94728.97
2019-04-07T22:43:11.316Z,94732.72
2019-04-07T22:45:40.422Z,94733.92
2019-04-07T22:48:10.019Z,94730.20
2019-04-07T22:50:39.742Z,94728.83
2019-04-07T22:53:09.381Z,94732.86
2019-04-07T22:55:38.501Z,94726.80
2019-04-07T22:58:07.688Z,94732.58
2019-04-07T23:00:37.127Z,94728.97
2019-04-07T23:03:06.097Z,94735.59
2019-04-07T23:05:34.989Z,94735.75
2019-04-07T23:08:04.088Z,94732.88
2019-04-07T23:10:33.698Z,94736.84
2019-04-07T23:13:03.590Z,94739.52
2019-04-07T23:15:41.278Z,94739.38
2019-04-07T23:18:05.348Z,94734.46
2019-04-07T23:20:34.291Z,94738.29
2019-04-07T23:23:03.266Z,94736.34
2019-04-07T23:25:32.463Z,94734.75
2019-04-07T23:28:01.355Z,94736.63
2019-04-07T23:30:31.354Z,94738.94
2019-04-07T23:33:00.266Z,94732.56
2019-04-07T23:35:29.153Z,94743.82
2019-04-07T23:37:58.046Z,94739.64
2019-04-07T23:40:26.944Z,94740.65
2019-04-07T23:42:56.033Z,94738.19
2019-04-07T23:45:25.320Z,94744.19
2019-04-07T23:47:54.651Z,94739.34
2019-04-07T23:50:23.634Z,94738.00
2019-04-07T23:52:52.521Z,94737.03
2019-04-07T23:55:21.888Z,94740.06
2019-04-07T23:57:50.812Z,94733.53
